EZY532 EGAC-EGGP
Flight info
| Callsign | EZY532 |
|---|---|
| Flight time | 0h 31m |
| Altitude | 23000 |
| Route | DUFFY L15 PEPOD Q38 SOSIM L28 PENIL |
| Aircraft | A320/M-SDE3FGHIRWY/LB1 |
Departure
| Time | 2026-04-29 10:36 |
|---|---|
| Airport | George Best Belfast City Airport (EGAC) |
Arrival
| Time | 2026-04-29 11:08 |
|---|---|
| Airport | Liverpool John Lennon Airport (EGGP) |
| Time | Latitude | Longitude | Altitude | Speed | Heading |
|---|---|---|---|---|---|
| 2026-04-29 10:13 | 54.61435 | -5.87225 | 22 ft | 0 kts | 124° |
| 2026-04-29 10:28 | 54.61436 | -5.87226 | 21 ft | 1 kts | 124° |
| 2026-04-29 10:28 | 54.61451 | -5.87259 | 21 ft | 4 kts | 139° |
| 2026-04-29 10:28 | 54.61472 | -5.87281 | 21 ft | 4 kts | 178° |
| 2026-04-29 10:29 | 54.61487 | -5.87277 | 25 ft | 0 kts | 214° |
| 2026-04-29 10:31 | 54.61466 | -5.87301 | 25 ft | 5 kts | 214° |
| 2026-04-29 10:32 | 54.61431 | -5.87342 | 21 ft | 10 kts | 214° |
| 2026-04-29 10:32 | 54.61380 | -5.87451 | 21 ft | 12 kts | 216° |
| 2026-04-29 10:32 | 54.61311 | -5.87533 | 19 ft | 13 kts | 216° |
| 2026-04-29 10:32 | 54.61234 | -5.87623 | 17 ft | 14 kts | 214° |
| 2026-04-29 10:33 | 54.61155 | -5.87719 | 17 ft | 13 kts | 215° |
| 2026-04-29 10:33 | 54.61098 | -5.87790 | 20 ft | 7 kts | 220° |
| 2026-04-29 10:33 | 54.61087 | -5.87823 | 19 ft | 0 kts | 258° |
| 2026-04-29 10:34 | 54.61084 | -5.87847 | 20 ft | 5 kts | 260° |
| 2026-04-29 10:35 | 54.61089 | -5.87913 | 19 ft | 6 kts | 291° |
| 2026-04-29 10:35 | 54.61118 | -5.87982 | 18 ft | 8 kts | 307° |
| 2026-04-29 10:35 | 54.61161 | -5.88028 | 18 ft | 8 kts | 26° |
| 2026-04-29 10:35 | 54.61322 | -5.87834 | 14 ft | 64 kts | 35° |
| 2026-04-29 10:36 | 54.61880 | -5.87168 | 28 ft | 126 kts | 34° |
| 2026-04-29 10:36 | 54.62621 | -5.86287 | 546 ft | 132 kts | 35° |
| 2026-04-29 10:36 | 54.63377 | -5.85366 | 1176 ft | 135 kts | 42° |
| 2026-04-29 10:36 | 54.64192 | -5.84344 | 1648 ft | 154 kts | 44° |
| 2026-04-29 10:37 | 54.64810 | -5.82805 | 2018 ft | 165 kts | 82° |
| 2026-04-29 10:37 | 54.64679 | -5.80798 | 2495 ft | 177 kts | 112° |
| 2026-04-29 10:37 | 54.63879 | -5.79079 | 3011 ft | 198 kts | 147° |
| 2026-04-29 10:37 | 54.62450 | -5.78545 | 3475 ft | 234 kts | 182° |
| 2026-04-29 10:38 | 54.60793 | -5.79350 | 4155 ft | 256 kts | 195° |
| 2026-04-29 10:38 | 54.59119 | -5.80527 | 5111 ft | 263 kts | 198° |
| 2026-04-29 10:38 | 54.57436 | -5.81814 | 6113 ft | 267 kts | 199° |
| 2026-04-29 10:38 | 54.55746 | -5.83131 | 7045 ft | 273 kts | 199° |
| 2026-04-29 10:39 | 54.53984 | -5.84417 | 7966 ft | 276 kts | 194° |
| 2026-04-29 10:39 | 54.52117 | -5.84953 | 8868 ft | 272 kts | 173° |
| 2026-04-29 10:39 | 54.50274 | -5.84315 | 9706 ft | 272 kts | 154° |
| 2026-04-29 10:39 | 54.48631 | -5.82726 | 10586 ft | 271 kts | 141° |
| 2026-04-29 10:40 | 54.47037 | -5.80800 | 11081 ft | 291 kts | 141° |
| 2026-04-29 10:40 | 54.45318 | -5.78702 | 11415 ft | 314 kts | 141° |
| 2026-04-29 10:40 | 54.43510 | -5.76494 | 12045 ft | 323 kts | 141° |
| 2026-04-29 10:40 | 54.41662 | -5.74258 | 12861 ft | 327 kts | 141° |
| 2026-04-29 10:41 | 54.39788 | -5.72004 | 13675 ft | 330 kts | 141° |
| 2026-04-29 10:41 | 54.37897 | -5.69745 | 14493 ft | 333 kts | 141° |
| 2026-04-29 10:41 | 54.35987 | -5.67471 | 15232 ft | 336 kts | 141° |
| 2026-04-29 10:41 | 54.34058 | -5.65176 | 15919 ft | 340 kts | 141° |
| 2026-04-29 10:42 | 54.32105 | -5.62854 | 16593 ft | 344 kts | 141° |
| 2026-04-29 10:42 | 54.30129 | -5.60507 | 17259 ft | 348 kts | 141° |
| 2026-04-29 10:42 | 54.28145 | -5.58087 | 17914 ft | 350 kts | 137° |
| 2026-04-29 10:42 | 54.26409 | -5.55185 | 18571 ft | 350 kts | 126° |
| 2026-04-29 10:43 | 54.24960 | -5.51816 | 19160 ft | 353 kts | 122° |
| 2026-04-29 10:43 | 54.23526 | -5.48384 | 19738 ft | 357 kts | 123° |
| 2026-04-29 10:43 | 54.22071 | -5.44927 | 20312 ft | 360 kts | 123° |
| 2026-04-29 10:43 | 54.20600 | -5.41445 | 20903 ft | 364 kts | 123° |
| 2026-04-29 10:44 | 54.19109 | -5.37922 | 21494 ft | 367 kts | 123° |
| 2026-04-29 10:44 | 54.17603 | -5.34378 | 22067 ft | 371 kts | 123° |
| 2026-04-29 10:44 | 54.16081 | -5.30804 | 22639 ft | 374 kts | 123° |
| 2026-04-29 10:44 | 54.14567 | -5.27244 | 23189 ft | 377 kts | 123° |
| 2026-04-29 10:45 | 54.13020 | -5.23613 | 23418 ft | 379 kts | 122° |
| 2026-04-29 10:45 | 54.11460 | -5.19953 | 23435 ft | 382 kts | 122° |
| 2026-04-29 10:45 | 54.09897 | -5.16289 | 23434 ft | 382 kts | 122° |
| 2026-04-29 10:45 | 54.08332 | -5.12624 | 23434 ft | 383 kts | 122° |
| 2026-04-29 10:46 | 54.06761 | -5.08953 | 23436 ft | 383 kts | 123° |
| 2026-04-29 10:46 | 54.05194 | -5.05299 | 23437 ft | 383 kts | 123° |
| 2026-04-29 10:46 | 54.03621 | -5.01645 | 23428 ft | 383 kts | 123° |
| 2026-04-29 10:46 | 54.02045 | -4.97986 | 23428 ft | 383 kts | 123° |
| 2026-04-29 10:47 | 54.00470 | -4.94337 | 23429 ft | 383 kts | 123° |
| 2026-04-29 10:47 | 53.98896 | -4.90689 | 23428 ft | 383 kts | 123° |
| 2026-04-29 10:47 | 53.97322 | -4.87044 | 23426 ft | 383 kts | 123° |
| 2026-04-29 10:47 | 53.95744 | -4.83401 | 23409 ft | 383 kts | 123° |
| 2026-04-29 10:48 | 53.94166 | -4.79766 | 23401 ft | 382 kts | 123° |
| 2026-04-29 10:48 | 53.92587 | -4.76133 | 23400 ft | 382 kts | 123° |
| 2026-04-29 10:48 | 53.91010 | -4.72503 | 23399 ft | 382 kts | 123° |
| 2026-04-29 10:48 | 53.89433 | -4.68874 | 23427 ft | 382 kts | 123° |
| 2026-04-29 10:49 | 53.87857 | -4.65254 | 23429 ft | 381 kts | 123° |
| 2026-04-29 10:49 | 53.86281 | -4.61646 | 23428 ft | 381 kts | 123° |
| 2026-04-29 10:49 | 53.84699 | -4.58043 | 23412 ft | 380 kts | 123° |
| 2026-04-29 10:49 | 53.83146 | -4.54503 | 23408 ft | 380 kts | 123° |
| 2026-04-29 10:50 | 53.81672 | -4.50805 | 23405 ft | 377 kts | 116° |
| 2026-04-29 10:50 | 53.80601 | -4.46813 | 23372 ft | 369 kts | 109° |
| 2026-04-29 10:50 | 53.79673 | -4.42772 | 22443 ft | 372 kts | 109° |
| 2026-04-29 10:50 | 53.78726 | -4.38666 | 21626 ft | 374 kts | 109° |
| 2026-04-29 10:51 | 53.77788 | -4.34629 | 21224 ft | 365 kts | 110° |
| 2026-04-29 10:51 | 53.76861 | -4.30677 | 20773 ft | 359 kts | 110° |
| 2026-04-29 10:51 | 53.75948 | -4.26791 | 20308 ft | 353 kts | 110° |
| 2026-04-29 10:51 | 53.75048 | -4.22964 | 19864 ft | 348 kts | 110° |
| 2026-04-29 10:52 | 53.74161 | -4.19189 | 19417 ft | 343 kts | 110° |
| 2026-04-29 10:52 | 53.73282 | -4.15457 | 18965 ft | 339 kts | 110° |
| 2026-04-29 10:52 | 53.72415 | -4.11776 | 18496 ft | 336 kts | 110° |
| 2026-04-29 10:52 | 53.71559 | -4.08136 | 18028 ft | 331 kts | 110° |
| 2026-04-29 10:53 | 53.70710 | -4.04536 | 17505 ft | 328 kts | 110° |
| 2026-04-29 10:53 | 53.69865 | -4.00973 | 17010 ft | 326 kts | 111° |
| 2026-04-29 10:53 | 53.69016 | -3.97402 | 16193 ft | 332 kts | 111° |
| 2026-04-29 10:53 | 53.68167 | -3.93826 | 15622 ft | 332 kts | 111° |
| 2026-04-29 10:54 | 53.67311 | -3.90230 | 15091 ft | 329 kts | 111° |
| 2026-04-29 10:54 | 53.66457 | -3.86657 | 14569 ft | 328 kts | 111° |
| 2026-04-29 10:54 | 53.65609 | -3.83105 | 14031 ft | 326 kts | 111° |
| 2026-04-29 10:54 | 53.64767 | -3.79581 | 13500 ft | 322 kts | 111° |
| 2026-04-29 10:55 | 53.63930 | -3.76096 | 12969 ft | 319 kts | 111° |
| 2026-04-29 10:55 | 53.63104 | -3.72647 | 12465 ft | 316 kts | 111° |
| 2026-04-29 10:55 | 53.62285 | -3.69240 | 11952 ft | 309 kts | 112° |
| 2026-04-29 10:55 | 53.61258 | -3.66165 | 11453 ft | 294 kts | 124° |
| 2026-04-29 10:56 | 53.59931 | -3.63639 | 10992 ft | 282 kts | 133° |
| 2026-04-29 10:56 | 53.58540 | -3.61398 | 10510 ft | 272 kts | 133° |
| 2026-04-29 10:56 | 53.57196 | -3.59231 | 10018 ft | 264 kts | 132° |
| 2026-04-29 10:56 | 53.55881 | -3.57098 | 9613 ft | 262 kts | 132° |
| 2026-04-29 10:57 | 53.54573 | -3.54973 | 9219 ft | 261 kts | 133° |
| 2026-04-29 10:57 | 53.53269 | -3.52864 | 8831 ft | 259 kts | 133° |
| 2026-04-29 10:57 | 53.51977 | -3.50780 | 8450 ft | 256 kts | 133° |
| 2026-04-29 10:57 | 53.50712 | -3.48743 | 8078 ft | 254 kts | 133° |
| 2026-04-29 10:58 | 53.49444 | -3.46698 | 7694 ft | 252 kts | 133° |
| 2026-04-29 10:58 | 53.48288 | -3.44537 | 7309 ft | 246 kts | 123° |
| 2026-04-29 10:58 | 53.47494 | -3.42099 | 6951 ft | 231 kts | 115° |
| 2026-04-29 10:58 | 53.46817 | -3.39729 | 6578 ft | 219 kts | 115° |
| 2026-04-29 10:59 | 53.46175 | -3.37476 | 6194 ft | 209 kts | 115° |
| 2026-04-29 10:59 | 53.45565 | -3.35327 | 5811 ft | 200 kts | 115° |
| 2026-04-29 10:59 | 53.44941 | -3.33248 | 5435 ft | 200 kts | 122° |
| 2026-04-29 10:59 | 53.43867 | -3.31764 | 5045 ft | 206 kts | 149° |
| 2026-04-29 11:00 | 53.42495 | -3.30965 | 4643 ft | 211 kts | 159° |
| 2026-04-29 11:00 | 53.41088 | -3.30386 | 4377 ft | 206 kts | 160° |
| 2026-04-29 11:00 | 53.39705 | -3.29866 | 4129 ft | 201 kts | 160° |
| 2026-04-29 11:00 | 53.38348 | -3.29386 | 3875 ft | 198 kts | 160° |
| 2026-04-29 11:01 | 53.37008 | -3.28931 | 3623 ft | 195 kts | 160° |
| 2026-04-29 11:01 | 53.35678 | -3.28492 | 3363 ft | 195 kts | 160° |
| 2026-04-29 11:01 | 53.34416 | -3.27836 | 3112 ft | 183 kts | 139° |
| 2026-04-29 11:01 | 53.33511 | -3.26392 | 2852 ft | 179 kts | 127° |
| 2026-04-29 11:02 | 53.32720 | -3.24773 | 2652 ft | 181 kts | 124° |
| 2026-04-29 11:02 | 53.32179 | -3.22901 | 2568 ft | 181 kts | 98° |
| 2026-04-29 11:02 | 53.32121 | -3.20807 | 2505 ft | 184 kts | 92° |
| 2026-04-29 11:02 | 53.32098 | -3.18637 | 2504 ft | 185 kts | 92° |
| 2026-04-29 11:03 | 53.32059 | -3.16583 | 2497 ft | 171 kts | 95° |
| 2026-04-29 11:03 | 53.32032 | -3.14625 | 2507 ft | 168 kts | 90° |
| 2026-04-29 11:03 | 53.32078 | -3.12675 | 2509 ft | 168 kts | 89° |
| 2026-04-29 11:03 | 53.32154 | -3.10726 | 2507 ft | 168 kts | 89° |
| 2026-04-29 11:04 | 53.32242 | -3.08782 | 2516 ft | 167 kts | 88° |
| 2026-04-29 11:04 | 53.32331 | -3.06887 | 2451 ft | 163 kts | 86° |
| 2026-04-29 11:04 | 53.32421 | -3.05004 | 2273 ft | 163 kts | 86° |
| 2026-04-29 11:04 | 53.32509 | -3.03144 | 2050 ft | 158 kts | 86° |
| 2026-04-29 11:05 | 53.32595 | -3.01357 | 1843 ft | 148 kts | 87° |
| 2026-04-29 11:05 | 53.32672 | -2.99748 | 1714 ft | 126 kts | 86° |
| 2026-04-29 11:05 | 53.32738 | -2.98320 | 1554 ft | 126 kts | 86° |
| 2026-04-29 11:05 | 53.32792 | -2.96834 | 1296 ft | 130 kts | 89° |
| 2026-04-29 11:06 | 53.32859 | -2.95344 | 1070 ft | 125 kts | 86° |
| 2026-04-29 11:06 | 53.32951 | -2.93912 | 920 ft | 124 kts | 86° |
| 2026-04-29 11:06 | 53.33020 | -2.92441 | 795 ft | 129 kts | 88° |
| 2026-04-29 11:06 | 53.33080 | -2.90965 | 687 ft | 126 kts | 85° |
| 2026-04-29 11:07 | 53.33146 | -2.89490 | 496 ft | 129 kts | 87° |
| 2026-04-29 11:07 | 53.33222 | -2.88108 | 305 ft | 125 kts | 88° |
| 2026-04-29 11:07 | 53.33281 | -2.86701 | 122 ft | 122 kts | 86° |
| 2026-04-29 11:07 | 53.33342 | -2.85400 | 81 ft | 89 kts | 86° |
| 2026-04-29 11:08 | 53.33372 | -2.84775 | 77 ft | 38 kts | 84° |
| 2026-04-29 11:08 | 53.33449 | -2.84440 | 85 ft | 24 kts | 59° |
| 2026-04-29 11:08 | 53.33508 | -2.84278 | 80 ft | 11 kts | 56° |
| 2026-04-29 11:08 | 53.33557 | -2.84285 | 68 ft | 10 kts | 278° |
| 2026-04-29 11:09 | 53.33557 | -2.84398 | 75 ft | 10 kts | 265° |
| 2026-04-29 11:09 | 53.33554 | -2.84502 | 73 ft | 8 kts | 267° |
| 2026-04-29 11:09 | 53.33547 | -2.84611 | 80 ft | 12 kts | 264° |
| 2026-04-29 11:09 | 53.33541 | -2.84705 | 81 ft | 13 kts | 265° |
| 2026-04-29 11:10 | 53.33534 | -2.84847 | 86 ft | 11 kts | 266° |
| 2026-04-29 11:10 | 53.33530 | -2.84967 | 85 ft | 10 kts | 265° |
| 2026-04-29 11:10 | 53.33525 | -2.85095 | 89 ft | 11 kts | 266° |
| 2026-04-29 11:10 | 53.33517 | -2.85265 | 87 ft | 17 kts | 265° |
| 2026-04-29 11:11 | 53.33510 | -2.85448 | 86 ft | 14 kts | 275° |
| 2026-04-29 11:11 | 53.33578 | -2.85508 | 85 ft | 12 kts | 354° |
| 2026-04-29 11:11 | 53.33630 | -2.85576 | 88 ft | 4 kts | 330° |
| 2026-04-29 11:11 | 53.33642 | -2.85582 | 87 ft | 2 kts | 346° |
| 2026-04-29 11:12 | 53.33653 | -2.85585 | 86 ft | 1 kts | 354° |
| 2026-04-29 11:12 | 53.33655 | -2.85585 | 89 ft | 0 kts | 353° |
| 2026-04-29 11:12 | 53.33660 | -2.85586 | 89 ft | 1 kts | 354° |
| 2026-04-29 11:12 | 53.33662 | -2.85586 | 89 ft | 0 kts | 354° |